Terminal Aerodrome Forecast
Issued by NWS Northern Indiana

Home | Current Version | Previous Version | Text Only | Print | Product List | Glossary On
Versions: 1 2 3 4 5 6 7 8 9 10 11 12 13 14 15 16
000
FTUS43 KIWX 131722
TAFFWA
TAF
KFWA 131722Z 1318/1418 33011KT P6SM BKN040
      TEMPO 1319/1323 3SM -SHSN BKN020
     FM140300 27004KT P6SM SCT040
     FM141400 20008KT P6SM SCT250=

USA.gov is the U.S. government's official web portal to all federal, state and local government web resources and services.